Time;durP1;ratioP1;P1;durP2;ratioP2;P2;SDS_P1;SDS_P2;PMS_P1;PMS_P2;Temp;Humidity;BMP_temperature;BMP_pressure;BME280_temperature;BME280_humidity;BME280_pressure;Samples;Min_cycle;Max_cycle;Signal;HPM_P1;HPM_P2
2021/04/01 00:00:28;;;;;;;;;;;10.90;79.00;;;;;;5031170;28;20029;-69
2021/04/01 00:02:53;;;;;;;;;;;10.90;79.00;;;;;;5031370;28;19955;-68
2021/04/01 00:05:21;;;;;;;10.68;6.55;;;10.90;79.40;;;;;;5030554;28;19908;-68
2021/04/01 00:07:47;;;;;;;14.55;6.80;;;10.90;79.20;;;;;;5030888;28;20030;-69
2021/04/01 00:10:14;;;;;;;;;;;10.90;79.00;;;;;;5031113;28;20044;-68
2021/04/01 00:12:39;;;;;;;15.55;7.05;;;10.80;78.90;;;;;;5030553;28;19905;-69
2021/04/01 00:15:06;;;;;;;;;;;10.80;79.90;;;;;;5030976;28;20098;-69
2021/04/01 00:17:31;;;;;;;10.67;5.57;;;10.80;80.20;;;;;;5030135;28;20611;-68
2021/04/01 00:19:57;;;;;;;;;;;10.80;79.90;;;;;;5030810;28;20132;-68
2021/04/01 00:22:23;;;;;;;15.70;7.22;;;10.80;79.80;;;;;;5029070;28;19915;-69
2021/04/01 00:24:48;;;;;;;;;;;10.80;79.70;;;;;;5030805;28;20037;-68
2021/04/01 00:27:14;;;;;;;13.23;6.25;;;10.80;79.60;;;;;;5028800;28;19920;-69
2021/04/01 00:29:39;;;;;;;;;;;10.80;79.40;;;;;;5030680;28;20615;-68
2021/04/01 00:32:05;;;;;;;13.07;6.53;;;10.70;79.60;;;;;;5030245;28;19907;-69
2021/04/01 00:34:31;;;;;;;;;;;10.60;80.20;;;;;;5030598;28;20037;-68
2021/04/01 00:36:56;;;;;;;11.25;6.72;;;10.60;80.30;;;;;;5030067;28;19911;-69
2021/04/01 00:39:22;;;;;;;;;;;10.60;80.60;;;;;;5029142;28;20606;-68
2021/04/01 00:41:47;;;;;;;11.32;6.15;;;10.50;80.90;;;;;;5029922;28;19920;-69
2021/04/01 00:44:16;;;;;;;;;;;10.50;80.40;;;;;;5030633;28;20026;-68
2021/04/01 00:46:47;;;;;;;14.45;8.32;;;10.50;80.30;;;;;;5029979;28;19909;-68
2021/04/01 00:49:13;;;;;;;15.20;8.35;;;10.50;80.50;;;;;;5029857;28;20017;-68
2021/04/01 00:51:39;;;;;;;15.25;8.45;;;10.60;80.80;;;;;;5028440;28;20374;-69
2021/04/01 00:54:05;;;;;;;;;;;10.50;80.80;;;;;;5030386;28;20026;-69
2021/04/01 00:56:30;;;;;;;17.27;7.50;;;10.50;80.80;;;;;;5029593;28;19917;-69
2021/04/01 00:58:56;;;;;;;;;;;10.50;80.90;;;;;;5030376;28;20041;-68
2021/04/01 01:04:01;;;;;;;10.27;5.32;;;10.50;80.70;;;;;;5029548;28;20029;-68
2021/04/01 01:06:27;;;;;;;13.05;6.35;;;10.50;80.60;;;;;;5029637;28;20437;-69
2021/04/01 01:08:53;;;;;;;15.10;5.47;;;10.50;80.60;;;;;;5029616;28;20035;-69
2021/04/01 01:11:18;;;;;;;;;;;10.50;80.60;;;;;;5029910;28;20018;-68
2021/04/01 01:13:44;;;;;;;9.43;5.45;;;10.50;80.50;;;;;;5029478;28;19909;-69
2021/04/01 01:16:11;;;;;;;;;;;10.50;80.20;;;;;;5029914;28;20037;-68
2021/04/01 01:18:36;;;;;;;11.80;5.72;;;10.50;80.10;;;;;;5029197;28;20374;-69
2021/04/01 01:21:02;;;;;;;;;;;10.40;80.30;;;;;;5029741;28;20056;-68
2021/04/01 01:23:28;;;;;;;14.93;6.90;;;10.40;80.30;;;;;;5029126;28;20000;-68
2021/04/01 01:25:55;;;;;;;16.35;6.72;;;10.30;80.50;;;;;;5029234;28;20035;-69
2021/04/01 01:28:22;;;;;;;12.10;6.00;;;10.30;80.70;;;;;;5027838;28;20432;-68
2021/04/01 01:30:47;;;;;;;10.68;6.15;;;10.30;80.90;;;;;;5029221;28;20148;-68
2021/04/01 01:33:18;;;;;;;;;;;10.40;81.40;;;;;;5029367;28;20040;-67
2021/04/01 01:35:44;;;;;;;19.08;8.13;;;10.40;81.60;;;;;;5029059;28;19950;-69
2021/04/01 01:38:10;;;;;;;19.52;8.98;;;10.30;81.60;;;;;;5029067;28;20029;-69
2021/04/01 01:40:36;;;;;;;;;;;10.40;81.90;;;;;;5029432;28;20072;-69
2021/04/01 01:43:08;;;;;;;15.63;8.25;;;10.40;82.00;;;;;;5028702;28;20297;-68
2021/04/01 01:45:34;;;;;;;13.82;7.88;;;10.40;82.10;;;;;;5028848;28;20052;-69
2021/04/01 01:48:00;;;;;;;14.27;7.32;;;10.40;82.00;;;;;;5028741;28;20045;-69
2021/04/01 01:50:30;;;;;;;;;;;10.40;81.70;;;;;;5027873;28;20056;-69
2021/04/01 01:52:57;;;;;;;13.65;7.38;;;10.40;82.10;;;;;;5028641;28;19924;-69
2021/04/01 01:55:23;;;;;;;14.02;5.93;;;10.40;81.80;;;;;;5027315;28;20040;-68
2021/04/01 01:57:49;;;;;;;10.68;5.32;;;10.50;81.70;;;;;;5028697;28;20033;-69
2021/04/01 02:00:17;;;;;;;;;;;10.60;81.10;;;;;;5028584;28;22396;-68
2021/04/01 02:03:00;;;;;;;11.13;4.55;;;10.70;80.90;;;;;;5028732;28;20702;-68
2021/04/01 02:05:27;;;;;;;11.07;4.38;;;10.80;80.70;;;;;;5027090;28;20549;-68
2021/04/01 02:07:54;;;;;;;10.40;4.75;;;10.80;80.30;;;;;;5028316;28;20029;-69
2021/04/01 02:10:43;;;;;;;14.35;4.20;;;10.80;80.60;;;;;;5028382;28;20088;-68
2021/04/01 02:13:10;;;;;;;9.77;3.88;;;10.90;80.00;;;;;;5027104;28;20029;-68
2021/04/01 02:15:37;;;;;;;9.32;4.53;;;10.80;79.80;;;;;;5028313;28;20061;-68
2021/04/01 02:18:17;;;;;;;11.93;4.80;;;10.70;79.50;;;;;;5028375;28;20050;-69
2021/04/01 02:20:49;;;;;;;12.05;5.38;;;10.60;79.70;;;;;;5028194;28;20804;-69
2021/04/01 02:23:17;;;;;;;10.13;5.85;;;10.60;79.90;;;;;;5027137;28;20044;-69
2021/04/01 02:25:44;;;;;;;14.23;7.47;;;10.50;80.70;;;;;;5026992;28;20034;-69
2021/04/01 02:28:11;;;;;;;13.20;6.40;;;10.40;80.20;;;;;;5028116;28;20022;-68
2021/04/01 02:30:39;;;;;;;14.10;6.30;;;10.30;80.40;;;;;;5028231;28;20480;-69
2021/04/01 02:33:05;;;;;;;12.32;6.85;;;10.30;80.70;;;;;;5027770;28;20072;-68
2021/04/01 02:35:32;;;;;;;11.15;6.45;;;10.30;80.90;;;;;;5027927;28;20033;-68
2021/04/01 02:37:59;;;;;;;11.13;6.72;;;10.20;81.00;;;;;;5027897;28;20041;-68
2021/04/01 02:40:24;;;;;;;;;;;10.20;81.50;;;;;;5028210;28;20037;-68
2021/04/01 02:42:50;;;;;;;9.60;5.35;;;10.10;81.70;;;;;;5028047;28;19905;-69
2021/04/01 02:45:16;;;;;;;;;;;10.10;81.60;;;;;;5027076;28;20084;-69
2021/04/01 02:47:42;;;;;;;18.00;6.57;;;10.00;81.90;;;;;;5027749;28;20277;-68
2021/04/01 02:50:08;;;;;;;;;;;9.90;81.90;;;;;;5028276;28;20091;-69
2021/04/01 02:52:34;;;;;;;8.70;5.18;;;9.90;82.50;;;;;;5026435;28;20639;-69
2021/04/01 02:55:00;;;;;;;;;;;9.90;82.40;;;;;;5026859;28;20036;-69
2021/04/01 02:57:26;;;;;;;10.55;5.10;;;9.80;82.40;;;;;;5043169;28;20316;-69
2021/04/01 02:59:51;;;;;;;;;;;9.80;82.50;;;;;;5028114;28;20419;-69
2021/04/01 03:02:18;;;;;;;13.82;6.10;;;9.70;82.50;;;;;;5027601;28;19920;-68
2021/04/01 03:04:44;;;;;;;11.48;6.30;;;9.70;83.00;;;;;;5026515;28;20036;-69
2021/04/01 03:07:10;;;;;;;;;;;9.70;83.30;;;;;;5027980;28;20032;-69
2021/04/01 03:09:36;;;;;;;18.40;6.93;;;9.70;83.50;;;;;;5027556;28;19909;-69
2021/04/01 03:12:03;;;;;;;13.27;6.38;;;9.70;83.80;;;;;;5029197;28;20029;-69
2021/04/01 03:14:29;;;;;;;20.00;6.70;;;9.70;83.80;;;;;;5031794;28;20075;-69
2021/04/01 03:16:54;;;;;;;;;;;9.70;84.00;;;;;;5031112;28;20065;-69
2021/04/01 03:19:20;;;;;;;12.18;6.47;;;9.70;84.20;;;;;;5031413;28;20015;-69
2021/04/01 03:21:46;;;;;;;21.20;8.25;;;9.60;84.10;;;;;;5030294;28;20052;-68
2021/04/01 03:24:12;;;;;;;;;;;9.60;84.40;;;;;;5032159;28;20044;-69
2021/04/01 03:26:38;;;;;;;23.25;10.27;;;9.70;84.70;;;;;;5031491;28;19952;-69
2021/04/01 03:29:03;;;;;;;;;;;9.70;84.60;;;;;;5031858;28;20049;-69
2021/04/01 03:31:29;;;;;;;21.95;11.57;;;9.70;84.70;;;;;;5031326;28;20374;-68
2021/04/01 03:33:55;;;;;;;;;;;9.70;84.90;;;;;;5031695;28;20072;-69
2021/04/01 03:36:20;;;;;;;31.95;10.73;;;9.70;84.80;;;;;;5031387;28;19909;-68
2021/04/01 03:38:47;;;;;;;;;;;9.70;84.50;;;;;;5031618;28;20033;-69
2021/04/01 03:41:13;;;;;;;29.88;11.50;;;9.70;85.20;;;;;;5031112;28;19927;-69
2021/04/01 03:43:38;;;;;;;;;;;9.70;85.00;;;;;;5031461;28;20037;-69
2021/04/01 03:46:04;;;;;;;23.63;9.98;;;9.70;85.20;;;;;;5031011;28;20312;-69
2021/04/01 03:48:30;;;;;;;23.63;10.63;;;9.70;84.40;;;;;;5030972;28;20060;-68
2021/04/01 03:50:56;;;;;;;;;;;9.70;84.20;;;;;;5031514;28;20057;-69
2021/04/01 03:53:22;;;;;;;20.75;10.43;;;9.60;83.80;;;;;;5030847;28;19912;-69
2021/04/01 03:55:49;;;;;;;21.33;10.07;;;9.60;84.10;;;;;;5031143;28;20084;-69
2021/04/01 04:14:28;;;;;;;31.80;14.98;;;9.40;85.30;;;;;;5030467;28;19971;-68
2021/04/01 04:16:43;;;;;;;31.20;13.93;;;9.40;85.40;;;;;;5029159;28;20037;-68
2021/04/01 04:19:09;;;;;;;;;;;9.40;85.30;;;;;;5030706;28;20826;-68
2021/04/01 04:21:34;;;;;;;24.98;11.55;;;9.40;85.30;;;;;;5030106;28;19913;-68
2021/04/01 04:24:02;;;;;;;;;;;9.40;85.20;;;;;;5030442;28;20039;-68
2021/04/01 04:26:27;;;;;;;24.20;10.13;;;9.40;84.70;;;;;;5030114;28;20435;-68
2021/04/01 04:28:53;;;;;;;18.73;9.00;;;9.40;84.90;;;;;;5030310;28;20029;-68
2021/04/01 04:31:19;;;;;;;;;;;9.40;85.10;;;;;;5030633;28;20470;-69
2021/04/01 04:33:44;;;;;;;21.27;8.90;;;9.40;85.10;;;;;;5029005;28;20595;-69
2021/04/01 04:36:10;;;;;;;;;;;9.30;84.80;;;;;;5029260;28;20041;-69
2021/04/01 04:38:35;;;;;;;31.75;16.92;;;9.30;84.60;;;;;;5030087;28;20022;-68
2021/04/01 04:41:01;;;;;;;;;;;9.40;84.40;;;;;;5029088;28;20079;-69
2021/04/01 04:43:29;;;;;;;33.30;13.43;;;9.40;84.80;;;;;;5029971;28;19951;-68
2021/04/01 04:45:55;;;;;;;18.15;10.60;;;9.40;85.10;;;;;;5030081;28;20025;-69
2021/04/01 04:48:21;;;;;;;20.60;10.07;;;9.50;85.10;;;;;;5029746;28;20048;-69
2021/04/01 04:50:48;;;;;;;26.90;11.02;;;9.50;84.80;;;;;;5029823;28;20452;-68
2021/04/01 04:53:15;;;;;;;21.60;9.45;;;9.70;84.40;;;;;;5028632;28;20079;-69
2021/04/01 05:04:37;;;;;;;12.40;7.32;;;11.20;79.00;;;;;;5029787;28;20033;-69
2021/04/01 05:06:54;;;;;;;17.15;8.38;;;12.40;73.60;;;;;;5029531;28;20085;-68
2021/04/01 05:09:21;;;;;;;16.98;8.27;;;12.90;71.50;;;;;;5029297;28;20014;-69
2021/04/01 05:11:47;;;;;;;17.85;9.52;;;12.80;71.60;;;;;;5029733;28;20044;-67
2021/04/01 05:14:12;;;;;;;;;;;12.60;72.50;;;;;;5028795;28;20030;-69
2021/04/01 05:16:38;;;;;;;33.63;17.08;;;12.50;72.60;;;;;;5029287;28;19913;-69
2021/04/01 05:19:06;;;;;;;;;;;12.50;73.40;;;;;;5029720;28;20069;-69
2021/04/01 05:21:44;;;;;;;35.42;22.55;;;12.40;73.80;;;;;;5029087;28;19927;-68
2021/04/01 05:24:10;;;;;;;32.42;20.02;;;12.50;73.60;;;;;;5029422;28;20036;-69
2021/04/01 05:29:12;;;;;;;28.52;18.42;;;13.10;72.90;;;;;;5029300;28;20423;-69
2021/04/01 05:31:39;;;;;;;28.33;14.98;;;13.70;71.40;;;;;;5029145;28;20115;-69
2021/04/01 05:34:05;;;;;;;24.10;14.77;;;14.50;69.70;;;;;;5027075;28;20052;-67
2021/04/01 05:36:35;;;;;;;21.38;12.40;;;15.20;67.70;;;;;;5028853;28;20037;-67
2021/04/01 05:39:01;;;;;;;19.67;9.98;;;15.90;64.60;;;;;;5029033;28;20022;-68
2021/04/01 05:41:28;;;;;;;16.92;8.98;;;16.60;61.90;;;;;;5028611;28;20041;-68
2021/04/01 05:44:05;;;;;;;32.55;9.63;;;17.00;59.90;;;;;;5028794;28;20033;-67
2021/04/01 05:46:42;;;;;;;20.75;9.88;;;17.60;58.40;;;;;;5028770;28;20021;-67
2021/04/01 05:57:56;;;;;;;11.93;4.20;;;19.30;52.50;;;;;;5028524;28;20108;-67
2021/04/01 06:05:50;;;;;;;18.83;7.03;;;20.20;49.90;;;;;;5017687;28;20596;-67
2021/04/01 06:08:20;;;;;;;11.13;6.78;;;20.30;49.50;;;;;;5028441;28;20026;-68
2021/04/01 06:10:48;;;;;;;14.65;5.32;;;20.30;49.50;;;;;;5028290;28;20029;-68
2021/04/01 06:13:15;;;;;;;10.02;4.72;;;20.40;49.10;;;;;;5028356;28;20072;-68
2021/04/01 06:15:46;;;;;;;9.23;5.22;;;20.40;48.50;;;;;;5027085;28;20478;-68
2021/04/01 06:18:13;;;;;;;15.23;6.28;;;20.70;48.00;;;;;;5028370;28;20073;-68
2021/04/01 06:20:44;;;;;;;12.38;5.63;;;20.90;47.20;;;;;;5028175;28;20033;-70
2021/04/01 06:23:27;;;;;;;13.25;6.97;;;21.00;46.90;;;;;;5028280;28;20151;-69
2021/04/01 06:25:54;;;;;;;12.75;6.60;;;21.40;46.00;;;;;;5027991;28;20544;-68
2021/04/01 06:28:32;;;;;;;12.98;6.40;;;21.70;45.40;;;;;;5027904;28;20048;-68
2021/04/01 06:30:59;;;;;;;14.13;7.25;;;21.90;44.30;;;;;;5026860;28;20472;-68
2021/04/01 06:33:27;;;;;;;15.13;6.43;;;22.20;44.20;;;;;;5027754;28;20056;-68
2021/04/01 06:36:04;;;;;;;13.27;6.70;;;22.50;43.50;;;;;;5026293;28;20026;-68
2021/04/01 06:38:37;;;;;;;10.38;5.30;;;23.00;42.70;;;;;;5027719;28;20025;-69
2021/04/01 06:41:05;;;;;;;12.25;5.82;;;23.50;41.40;;;;;;5027808;28;20080;-68
2021/04/01 06:43:56;;;;;;;15.88;6.15;;;23.70;41.00;;;;;;5027767;28;20035;-68
2021/04/01 06:46:26;;;;;;;14.85;6.38;;;24.10;40.00;;;;;;5027592;28;20022;-68
2021/04/01 06:51:54;;;;;;;14.57;6.07;;;24.80;39.00;;;;;;5027697;28;20061;-68
2021/04/01 06:57:12;;;;;;;8.98;5.72;;;25.50;36.90;;;;;;5027906;28;20400;-68
2021/04/01 07:00:00;;;;;;;14.77;6.35;;;25.50;37.00;;;;;;5027489;28;20022;-68
2021/04/01 07:02:33;;;;;;;9.63;5.35;;;25.60;36.20;;;;;;5027835;28;20033;-68
2021/04/01 07:05:26;;;;;;;8.55;4.32;;;25.60;36.40;;;;;;5027432;28;20043;-68
2021/04/01 07:08:01;;;;;;;8.27;4.50;;;25.90;36.10;;;;;;5027716;28;20511;-68
2021/04/01 07:13:32;;;;;;;12.70;4.80;;;26.90;34.70;;;;;;5027611;28;20048;-67
2021/04/01 07:16:18;;;;;;;13.15;5.60;;;27.30;34.10;;;;;;5027568;28;20895;-68
2021/04/01 07:46:29;;;;;;;;;;;26.20;35.10;;;;;;5027532;28;20399;-67
2021/04/01 07:49:02;;;;;;;13.50;6.32;;;26.10;34.00;;;;;;5027303;28;19909;-67
2021/04/01 07:54:16;;;;;;;25.13;6.10;;;26.30;34.70;;;;;;5027162;28;20047;-68
2021/04/01 07:57:01;;;;;;;11.02;5.85;;;26.80;34.20;;;;;;5025516;28;20417;-67
2021/04/01 08:02:26;;;;;;;13.18;6.88;;;27.50;33.40;;;;;;5030877;28;20054;-68
2021/04/01 08:04:53;;;;;;;13.45;6.47;;;28.10;32.40;;;;;;5030758;28;20021;-68
2021/04/01 08:07:21;;;;;;;14.40;6.97;;;28.60;32.00;;;;;;5030482;28;20029;-68
2021/04/01 08:09:52;;;;;;;14.70;5.47;;;28.90;31.50;;;;;;5030600;28;20025;-68
2021/04/01 08:12:26;;;;;;;22.48;6.45;;;29.20;30.80;;;;;;5031015;28;20040;-68
2021/04/01 08:15:15;;;;;;;23.98;6.45;;;29.60;30.40;;;;;;5030565;28;20029;-69
2021/04/01 08:18:28;;;;;;;16.83;6.15;;;29.70;30.20;;;;;;5030158;28;20832;-68
2021/04/01 08:20:34;;;;;;;20.45;5.90;;;29.60;30.40;;;;;;5027156;28;20103;-68
2021/04/01 08:23:10;;;;;;;11.45;6.35;;;29.30;30.90;;;;;;5028954;28;20552;-67
2021/04/01 08:25:44;;;;;;;18.55;6.50;;;29.30;30.60;;;;;;5030252;28;20026;-68
2021/04/01 08:33:39;;;;;;;13.05;6.63;;;29.00;30.70;;;;;;5030305;28;20525;-67
2021/04/01 08:36:07;;;;;;;18.80;6.43;;;28.60;31.50;;;;;;5030300;28;20048;-68
2021/04/01 08:38:33;;;;;;;15.43;5.93;;;28.30;32.30;;;;;;5030633;28;20470;-68
2021/04/01 08:41:10;;;;;;;13.82;4.93;;;28.30;32.40;;;;;;5029897;28;20056;-67
2021/04/01 08:43:44;;;;;;;4.57;2.90;;;28.40;32.50;;;;;;5030171;28;20043;-68
2021/04/01 08:46:15;;;;;;;7.10;2.45;;;28.80;31.50;;;;;;5028729;28;20505;-68
2021/04/01 08:48:50;;;;;;;4.85;2.13;;;29.00;30.50;;;;;;5029939;28;20033;-68
2021/04/01 08:51:37;;;;;;;6.28;2.47;;;29.30;30.00;;;;;;5029839;28;20041;-68
2021/04/01 08:54:11;;;;;;;6.15;2.28;;;29.40;29.70;;;;;;5029923;28;20025;-68
2021/04/01 08:56:41;;;;;;;5.70;2.90;;;29.50;30.00;;;;;;5028467;28;20025;-68
2021/04/01 08:59:12;;;;;;;6.00;2.63;;;29.60;29.60;;;;;;5029857;28;20279;-68
2021/04/01 09:01:42;;;;;;;6.38;2.55;;;29.70;29.50;;;;;;5029571;28;20044;-68
2021/04/01 09:04:08;;;;;;;7.03;2.10;;;29.80;29.80;;;;;;5028447;28;20363;-68
2021/04/01 09:06:37;;;;;;;6.70;2.38;;;30.00;29.30;;;;;;5029773;28;20029;-69
2021/04/01 09:09:29;;;;;;;7.13;2.30;;;30.30;29.20;;;;;;5028528;28;20048;-69
2021/04/01 09:12:21;;;;;;;8.32;2.38;;;30.50;28.60;;;;;;5029603;28;20484;-68
2021/04/01 09:14:49;;;;;;;7.32;1.80;;;30.50;28.10;;;;;;5029118;28;20520;-68
2021/04/01 09:17:16;;;;;;;4.93;2.25;;;30.40;28.30;;;;;;5029511;28;20025;-69
2021/04/01 09:19:44;;;;;;;4.93;2.28;;;30.40;28.20;;;;;;5029342;28;20046;-69
2021/04/01 09:22:17;;;;;;;11.77;2.42;;;30.40;28.80;;;;;;5029746;28;20037;-68
2021/04/01 09:24:43;;;;;;;6.75;2.35;;;30.30;28.20;;;;;;5029226;28;20096;-68
2021/04/01 09:27:13;;;;;;;9.82;2.25;;;30.40;28.40;;;;;;5029392;28;20482;-68
2021/04/01 09:29:41;;;;;;;10.15;2.42;;;30.40;28.30;;;;;;5029101;28;20111;-68
2021/04/01 09:32:07;;;;;;;5.10;2.25;;;30.20;28.00;;;;;;5029305;28;20047;-69
2021/04/01 09:34:33;;;;;;;6.50;2.97;;;30.10;28.50;;;;;;5029108;28;20040;-69
2021/04/01 09:37:14;;;;;;;5.70;2.92;;;29.80;29.00;;;;;;5029525;28;20033;-68
2021/04/01 09:39:41;;;;;;;6.15;2.50;;;29.70;29.10;;;;;;5029015;28;20108;-68
2021/04/01 09:42:10;;;;;;;4.53;2.67;;;29.60;29.50;;;;;;5028974;28;20505;-69
2021/04/01 09:44:37;;;;;;;6.15;3.08;;;29.60;29.70;;;;;;5027703;28;20021;-69
2021/04/01 09:47:15;;;;;;;6.28;2.60;;;29.80;29.20;;;;;;5027833;28;20033;-68
2021/04/01 09:50:03;;;;;;;11.55;2.22;;;30.00;28.90;;;;;;5027100;28;20144;-68
2021/04/01 09:52:29;;;;;;;5.53;2.80;;;29.70;29.40;;;;;;5027630;28;20042;-69
2021/04/01 09:55:04;;;;;;;5.68;2.35;;;29.70;29.60;;;;;;5027286;28;20057;-68
2021/04/01 09:57:48;;;;;;;6.13;2.35;;;29.90;29.40;;;;;;5028406;28;20441;-68
2021/04/01 10:03:20;;;;;;;9.27;2.40;;;30.00;28.50;;;;;;5028774;28;20048;-68
2021/04/01 10:05:47;;;;;;;13.57;3.10;;;29.90;28.60;;;;;;5028457;28;20048;-68
2021/04/01 10:08:25;;;;;;;6.13;2.35;;;29.70;29.00;;;;;;5028458;28;20029;-68
2021/04/01 10:10:56;;;;;;;7.85;2.47;;;29.50;29.80;;;;;;5028399;28;20035;-67
2021/04/01 10:13:24;;;;;;;11.70;2.05;;;29.40;29.20;;;;;;5028243;28;20454;-68
2021/04/01 10:15:52;;;;;;;7.25;3.03;;;29.30;29.70;;;;;;5026992;28;20234;-69
2021/04/01 10:18:40;;;;;;;5.38;3.15;;;29.20;29.30;;;;;;5028270;28;20069;-68
2021/04/01 10:21:11;;;;;;;5.13;2.13;;;29.10;29.60;;;;;;5027267;28;20072;-67
2021/04/01 10:23:53;;;;;;;7.00;2.63;;;28.80;30.20;;;;;;5028343;28;20025;-70
2021/04/01 10:26:25;;;;;;;5.28;2.58;;;28.60;30.30;;;;;;5028231;28;20056;-67
2021/04/01 10:29:04;;;;;;;8.18;2.83;;;28.30;30.40;;;;;;5028233;28;20037;-69
2021/04/01 10:31:30;;;;;;;7.22;2.85;;;27.80;31.00;;;;;;5028003;28;20037;-68
2021/04/01 10:34:05;;;;;;;4.82;2.15;;;27.50;31.50;;;;;;5026608;28;20099;-68
2021/04/01 10:36:31;;;;;;;5.25;2.60;;;27.10;31.90;;;;;;5028166;28;20052;-68
2021/04/01 10:39:08;;;;;;;9.00;2.45;;;26.90;32.20;;;;;;5028112;28;20026;-69
2021/04/01 10:41:46;;;;;;;13.18;3.25;;;26.60;32.50;;;;;;5027793;28;20144;-67
2021/04/01 10:44:12;;;;;;;8.95;2.78;;;26.10;33.40;;;;;;5028094;28;20029;-67
2021/04/01 10:46:41;;;;;;;10.52;2.97;;;25.80;34.20;;;;;;5027790;28;20547;-67
2021/04/01 10:49:09;;;;;;;9.02;3.10;;;25.50;34.60;;;;;;5027602;28;20425;-67
2021/04/01 10:51:36;;;;;;;6.93;2.47;;;25.30;35.00;;;;;;5026344;28;20052;-68
2021/04/01 10:54:09;;;;;;;7.80;2.67;;;25.10;35.20;;;;;;5027574;28;20756;-68
2021/04/01 10:56:44;;;;;;;12.68;2.83;;;25.10;34.90;;;;;;5027705;28;20037;-68
2021/04/01 10:59:10;;;;;;;9.55;2.78;;;24.90;35.30;;;;;;5027720;28;20021;-68
2021/04/01 11:01:43;;;;;;;8.20;2.20;;;24.70;35.90;;;;;;5027293;28;20103;-68
2021/04/01 11:04:12;;;;;;;5.00;2.00;;;24.60;35.90;;;;;;5027543;28;20025;-68
2021/04/01 11:06:39;;;;;;;5.53;1.83;;;24.50;35.90;;;;;;5027513;28;20025;-69
2021/04/01 11:09:08;;;;;;;5.68;1.83;;;24.40;36.40;;;;;;5027342;28;20066;-69
2021/04/01 11:14:27;;;;;;;6.15;2.10;;;24.40;35.80;;;;;;5027374;28;20044;-69
2021/04/01 11:16:53;;;;;;;5.28;2.97;;;24.30;36.30;;;;;;5027533;28;20483;-69
2021/04/01 11:19:20;;;;;;;9.25;2.13;;;24.30;35.70;;;;;;5027313;28;20095;-70
2021/04/01 11:21:48;;;;;;;4.68;1.90;;;24.30;36.20;;;;;;5027255;28;20060;-69
2021/04/01 11:24:14;;;;;;;16.83;2.42;;;24.20;36.40;;;;;;5027308;28;20063;-69
2021/04/01 11:26:40;;;;;;;3.42;1.90;;;24.10;36.70;;;;;;5027445;28;20496;-69
2021/04/01 11:29:13;;;;;;;9.43;1.80;;;24.10;36.30;;;;;;5026212;28;20112;-68
2021/04/01 11:31:39;;;;;;;7.95;1.75;;;24.10;36.30;;;;;;5027212;28;20465;-69
2021/04/01 11:34:06;;;;;;;5.97;2.05;;;24.20;36.00;;;;;;5030554;28;20446;-70
2021/04/01 11:36:37;;;;;;;6.93;2.20;;;24.20;36.50;;;;;;5031276;28;20029;-69
2021/04/01 11:39:14;;;;;;;5.57;2.67;;;24.30;36.50;;;;;;5031196;28;20513;-69
2021/04/01 11:41:45;;;;;;;;;;;24.40;36.40;;;;;;5032057;28;20044;-69
2021/04/01 11:44:11;;;;;;;8.20;3.08;;;24.40;36.70;;;;;;5030546;28;20329;-69
2021/04/01 11:46:37;;;;;;;7.68;3.15;;;24.40;36.30;;;;;;5032060;28;20140;-69
2021/04/01 11:49:03;;;;;;;10.02;2.50;;;24.50;35.50;;;;;;5031811;28;20394;-69
2021/04/01 11:51:31;;;;;;;6.60;2.80;;;24.50;36.10;;;;;;5031758;28;20025;-69
2021/04/01 11:53:57;;;;;;;7.25;3.13;;;24.40;35.70;;;;;;5030481;28;20075;-69
2021/04/01 11:56:37;;;;;;;7.28;3.22;;;24.40;36.50;;;;;;5030464;28;20744;-70
2021/04/01 11:59:13;;;;;;;9.15;2.75;;;24.30;37.10;;;;;;5031656;28;20032;-69
2021/04/01 12:01:48;;;;;;;;;;;24.30;36.70;;;;;;5031895;28;20401;-69
2021/04/01 12:04:16;;;;;;;9.95;2.90;;;24.30;36.60;;;;;;5031564;28;19953;-69
2021/04/01 12:06:42;;;;;;;11.95;2.80;;;24.30;37.00;;;;;;5031491;28;20033;-70
2021/04/01 12:09:09;;;;;;;11.10;2.45;;;24.30;36.90;;;;;;5031489;28;20055;-69
2021/04/01 12:11:42;;;;;;;8.75;3.15;;;24.30;36.80;;;;;;5031839;28;20551;-69
2021/04/01 12:14:10;;;;;;;9.38;2.63;;;24.30;37.20;;;;;;5031475;28;20017;-69
2021/04/01 12:16:35;;;;;;;14.52;2.90;;;24.30;37.00;;;;;;5031313;28;20562;-69
2021/04/01 12:19:01;;;;;;;7.90;2.47;;;24.30;36.80;;;;;;5031214;28;20137;-69
2021/04/01 12:21:28;;;;;;;8.50;3.22;;;24.40;37.10;;;;;;5031056;28;20025;-70
2021/04/01 12:23:58;;;;;;;10.45;2.78;;;24.50;36.40;;;;;;5031175;28;20104;-69
2021/04/01 12:26:29;;;;;;;9.32;3.17;;;24.50;36.50;;;;;;5031136;28;20029;-70
2021/04/01 12:28:56;;;;;;;15.63;3.55;;;24.70;36.60;;;;;;5031168;28;20021;-70
2021/04/01 12:31:54;;;;;;;8.90;3.10;;;24.70;36.20;;;;;;5030939;28;20053;-69
2021/04/01 12:34:30;;;;;;;11.35;3.20;;;24.90;35.90;;;;;;5029119;28;20045;-69
2021/04/01 12:37:04;;;;;;;10.50;3.80;;;24.90;36.00;;;;;;5029950;28;20030;-69
2021/04/01 12:39:31;;;;;;;6.63;3.45;;;24.80;36.00;;;;;;5030922;28;20033;-69
2021/04/01 12:41:57;;;;;;;11.95;3.80;;;24.80;36.10;;;;;;5030739;28;20560;-69
2021/04/01 12:44:45;;;;;;;5.20;3.08;;;24.70;36.20;;;;;;5030519;28;20025;-69
2021/04/01 12:47:22;;;;;;;15.60;3.15;;;24.70;36.30;;;;;;5030780;28;20030;-70
2021/04/01 12:49:49;;;;;;;5.72;3.05;;;24.60;37.00;;;;;;5030716;28;20033;-69
2021/04/01 12:52:15;;;;;;;14.32;3.60;;;24.70;36.60;;;;;;5030749;28;20049;-70
2021/04/01 12:54:43;;;;;;;6.93;3.22;;;24.70;36.10;;;;;;5030680;28;20029;-69
2021/04/01 12:57:16;;;;;;;9.13;3.75;;;24.60;36.00;;;;;;5029503;28;20406;-69
2021/04/01 12:59:53;;;;;;;13.73;3.88;;;24.60;36.70;;;;;;5030592;28;20104;-69
2021/04/01 13:02:24;;;;;;;8.88;2.92;;;24.40;37.00;;;;;;5030415;28;20037;-70
2021/04/01 13:04:55;;;;;;;8.18;2.88;;;24.30;37.40;;;;;;5030484;28;20064;-69
2021/04/01 13:07:30;;;;;;;9.52;3.50;;;24.30;37.30;;;;;;5030239;28;20048;-69
2021/04/01 13:12:38;;;;;;;5.15;2.70;;;24.30;37.20;;;;;;5030477;28;20029;-69
2021/04/01 13:15:05;;;;;;;11.05;2.75;;;24.30;37.60;;;;;;5028748;28;20026;-69
2021/04/01 13:17:31;;;;;;;11.90;2.83;;;24.30;37.10;;;;;;5028739;28;20029;-69
2021/04/01 13:19:57;;;;;;;8.52;3.33;;;24.30;37.10;;;;;;5030130;28;20441;-69
2021/04/01 13:22:31;;;;;;;16.73;3.97;;;24.40;36.90;;;;;;5029994;28;20045;-70
2021/04/01 13:25:13;;;;;;;7.13;2.95;;;24.50;36.20;;;;;;5030036;28;20029;-69
2021/04/01 13:27:43;;;;;;;7.47;3.30;;;24.50;36.50;;;;;;5029810;28;20557;-69
2021/04/01 13:30:10;;;;;;;7.20;2.35;;;24.40;36.30;;;;;;5029964;28;20037;-69
2021/04/01 13:38:06;;;;;;;5.25;2.60;;;24.50;36.60;;;;;;5021091;28;20060;-69
2021/04/01 13:40:36;;;;;;;9.27;3.58;;;24.50;36.50;;;;;;5029581;28;20018;-69
2021/04/01 13:43:03;;;;;;;6.93;2.55;;;24.50;36.80;;;;;;5029514;28;20565;-70
2021/04/01 13:45:28;;;;;;;7.70;2.28;;;24.50;36.60;;;;;;5029371;28;20163;-69
2021/04/01 13:48:03;;;;;;;6.30;2.55;;;24.50;37.00;;;;;;5028316;28;20505;-69
2021/04/01 13:50:32;;;;;;;6.05;3.08;;;24.50;36.30;;;;;;5029673;28;20053;-69
2021/04/01 13:53:48;;;;;;;15.45;2.85;;;24.50;36.70;;;;;;5029479;28;20026;-68
2021/04/01 13:55:46;;;;;;;8.23;3.10;;;24.60;37.20;;;;;;5024524;28;20056;-70
2021/04/01 14:09:24;;;;;;;8.75;2.30;;;24.40;37.20;;;;;;5028996;28;20048;-69
2021/04/01 14:11:50;;;;;;;9.63;2.20;;;24.30;37.30;;;;;;5027808;28;20029;-69
2021/04/01 14:14:16;;;;;;;6.20;2.28;;;24.30;37.20;;;;;;5029091;28;20489;-69
2021/04/01 14:16:42;;;;;;;8.80;2.30;;;24.30;37.60;;;;;;5029131;28;20032;-69
2021/04/01 14:19:09;;;;;;;10.18;2.67;;;24.20;37.80;;;;;;5027613;28;20057;-70
2021/04/01 14:21:36;;;;;;;5.85;2.50;;;24.30;37.40;;;;;;5028875;28;20037;-68
2021/04/01 14:24:23;;;;;;;8.13;2.38;;;24.30;37.80;;;;;;5029035;28;20119;-71
2021/04/01 14:29:35;;;;;;;9.93;2.42;;;24.40;37.00;;;;;;5028818;28;20036;-69
2021/04/01 14:32:03;;;;;;;6.93;2.53;;;24.50;36.30;;;;;;5028893;28;20045;-69
2021/04/01 14:34:29;;;;;;;9.02;2.38;;;24.60;36.50;;;;;;5028857;28;20029;-69
2021/04/01 14:36:56;;;;;;;7.47;2.58;;;24.70;35.90;;;;;;5028863;28;20022;-69
2021/04/01 14:39:26;;;;;;;10.90;2.45;;;24.80;36.10;;;;;;5028526;28;20498;-69
2021/04/01 14:44:26;;;;;;;6.55;2.40;;;24.90;36.40;;;;;;5028684;28;20079;-70
2021/04/01 14:46:51;;;;;;;7.03;2.60;;;24.90;35.70;;;;;;5028784;28;20483;-69
2021/04/01 14:49:18;;;;;;;5.18;1.90;;;24.70;35.80;;;;;;5028482;28;20036;-68
2021/04/01 14:51:44;;;;;;;16.65;2.40;;;24.50;36.50;;;;;;5028568;28;20445;-69
2021/04/01 14:54:16;;;;;;;5.35;1.90;;;24.40;37.00;;;;;;5028617;28;20425;-68
2021/04/01 14:56:50;;;;;;;9.63;2.85;;;24.30;37.00;;;;;;5028353;28;20029;-69
2021/04/01 14:59:25;;;;;;;5.40;2.53;;;24.20;37.30;;;;;;5028454;28;20056;-68
2021/04/01 15:01:51;;;;;;;13.18;2.10;;;24.20;37.00;;;;;;5028307;28;20124;-68
2021/04/01 15:04:18;;;;;;;5.38;2.20;;;24.00;37.50;;;;;;5028269;28;20025;-67
2021/04/01 15:06:52;;;;;;;7.97;2.40;;;23.90;37.70;;;;;;5028307;28;20380;-68